createdAt,value
2018-05-11T00:00:35.912Z,10.53
2018-05-11T00:03:03.442Z,7.83
2018-05-11T00:05:30.923Z,12.93
2018-05-11T00:07:58.545Z,7.03
2018-05-11T00:10:26.046Z,7.93
2018-05-11T00:12:53.567Z,7.87
2018-05-11T00:15:21.113Z,7.20
2018-05-11T00:17:48.674Z,7.13
2018-05-11T00:20:16.199Z,7.80
2018-05-11T00:22:43.757Z,6.90
2018-05-11T00:25:11.401Z,8.70
2018-05-11T00:27:40.694Z,6.80
2018-05-11T00:30:08.281Z,7.23
2018-05-11T00:32:35.807Z,9.87
2018-05-11T00:35:05.596Z,8.80
2018-05-11T00:37:34.011Z,8.43
2018-05-11T00:40:01.690Z,10.43
2018-05-11T00:42:29.273Z,8.20
2018-05-11T00:44:58.543Z,9.57
2018-05-11T00:47:26.118Z,8.60
2018-05-11T00:49:53.678Z,9.37
2018-05-11T00:52:21.210Z,7.90
2018-05-11T00:54:48.728Z,8.10
2018-05-11T00:57:19.145Z,8.17
2018-05-11T00:59:46.695Z,10.80
2018-05-11T01:02:14.332Z,10.07
2018-05-11T01:04:41.874Z,12.33
2018-05-11T01:07:09.484Z,15.37
2018-05-11T01:09:37.050Z,14.60
2018-05-11T01:12:04.712Z,10.87
2018-05-11T01:14:33.917Z,11.23
2018-05-11T01:17:01.555Z,10.90
2018-05-11T01:19:29.041Z,10.60
2018-05-11T01:21:56.601Z,12.40
2018-05-11T01:24:24.215Z,10.17
2018-05-11T01:26:51.776Z,11.37
2018-05-11T01:29:19.408Z,12.10
2018-05-11T01:31:46.943Z,13.60
2018-05-11T01:34:14.528Z,11.40
2018-05-11T01:36:42.307Z,16.43
2018-05-11T01:39:09.825Z,9.93
2018-05-11T01:41:37.427Z,12.07
2018-05-11T01:44:05.697Z,11.70
2018-05-11T01:46:33.268Z,10.83
2018-05-11T01:49:00.802Z,8.50
2018-05-11T01:51:28.335Z,10.10
2018-05-11T01:53:55.850Z,8.60
2018-05-11T01:56:25.267Z,9.93
2018-05-11T01:58:52.798Z,8.83
2018-05-11T02:01:20.333Z,8.60
2018-05-11T02:03:47.916Z,11.50
2018-05-11T02:06:15.501Z,10.40
2018-05-11T02:08:43.068Z,8.73
2018-05-11T02:11:10.592Z,13.13
2018-05-11T02:13:38.218Z,10.97
2018-05-11T02:16:05.755Z,10.87
2018-05-11T02:18:33.422Z,11.10
2018-05-11T02:21:00.870Z,9.00
2018-05-11T02:23:28.467Z,9.30
2018-05-11T02:25:56.117Z,9.30
2018-05-11T02:28:23.711Z,10.20
2018-05-11T02:30:51.326Z,9.10
2018-05-11T02:33:20.261Z,8.37
2018-05-11T02:35:47.928Z,12.47
2018-05-11T02:38:15.449Z,11.23
2018-05-11T02:40:42.978Z,9.90
2018-05-11T02:43:10.522Z,11.30
2018-05-11T02:45:38.087Z,11.00
2018-05-11T02:48:05.610Z,9.60
2018-05-11T02:50:33.160Z,8.97
2018-05-11T02:53:01.076Z,8.40
2018-05-11T02:55:28.605Z,12.00
2018-05-11T02:57:56.162Z,11.00
2018-05-11T03:00:23.769Z,8.80
2018-05-11T03:02:51.426Z,11.13
2018-05-11T03:05:18.971Z,8.30
2018-05-11T03:07:48.400Z,10.13
2018-05-11T03:10:15.937Z,7.60
2018-05-11T03:12:43.487Z,10.10
2018-05-11T03:15:11.087Z,8.20
2018-05-11T03:17:38.599Z,8.73
2018-05-11T03:20:06.165Z,10.97
2018-05-11T03:22:33.668Z,8.00
2018-05-11T03:25:01.344Z,7.23
2018-05-11T03:27:30.098Z,7.40
2018-05-11T03:29:57.649Z,8.70
2018-05-11T03:32:25.180Z,7.60
2018-05-11T03:34:52.682Z,9.63
2018-05-11T03:37:20.287Z,8.43
2018-05-11T03:39:47.851Z,10.93
2018-05-11T03:42:15.383Z,8.97
2018-05-11T03:44:42.896Z,8.13
2018-05-11T03:47:10.469Z,7.70
2018-05-11T03:49:38.118Z,9.03
2018-05-11T03:52:05.658Z,10.80
2018-05-11T03:54:33.439Z,11.30
2018-05-11T03:57:00.980Z,9.40
2018-05-11T03:59:28.493Z,8.70
2018-05-11T04:02:07.945Z,9.13
2018-05-11T04:04:47.483Z,11.00
2018-05-11T04:07:26.760Z,10.67
2018-05-11T04:09:54.295Z,8.60
2018-05-11T04:12:21.956Z,9.27
2018-05-11T04:14:49.492Z,8.57
2018-05-11T04:17:17.225Z,9.50
2018-05-11T04:19:44.802Z,12.50
2018-05-11T04:22:12.324Z,9.87
2018-05-11T04:24:39.918Z,9.50
2018-05-11T04:27:07.460Z,8.33
2018-05-11T04:29:35.009Z,12.30
2018-05-11T04:32:03.261Z,12.83
2018-05-11T04:34:30.796Z,12.17
2018-05-11T04:36:58.357Z,11.63
2018-05-11T04:39:25.875Z,13.50
2018-05-11T04:41:53.473Z,10.03
2018-05-11T04:44:21.006Z,10.10
2018-05-11T04:46:48.567Z,9.03
2018-05-11T04:49:16.269Z,12.27
2018-05-11T04:51:43.806Z,12.57
2018-05-11T04:54:11.339Z,10.63
2018-05-11T04:56:38.861Z,9.20
2018-05-11T04:59:06.383Z,6.80
2018-05-11T05:01:34.010Z,10.17
2018-05-11T05:04:01.651Z,11.40
2018-05-11T05:06:29.923Z,13.00
2018-05-11T05:08:57.446Z,9.30
2018-05-11T05:11:24.967Z,12.63
2018-05-11T05:13:52.553Z,7.30
2018-05-11T05:16:20.078Z,7.03
2018-05-11T05:18:47.609Z,10.90
2018-05-11T05:21:15.135Z,6.83
2018-05-11T05:23:42.661Z,9.90
2018-05-11T05:26:10.297Z,12.03
2018-05-11T05:28:37.901Z,15.20
2018-05-11T05:31:05.499Z,7.43
2018-05-11T05:33:33.130Z,8.97
2018-05-11T05:36:00.722Z,7.60
2018-05-11T05:38:28.360Z,8.73
2018-05-11T05:40:55.873Z,8.50
2018-05-11T05:43:26.032Z,9.10
2018-05-11T05:45:55.550Z,8.83
2018-05-11T05:48:23.068Z,9.23
2018-05-11T05:50:50.593Z,9.10
2018-05-11T05:53:18.177Z,8.03
2018-05-11T05:55:45.728Z,11.33
2018-05-11T05:58:13.336Z,14.37
2018-05-11T06:00:41.054Z,8.03
2018-05-11T06:03:08.705Z,7.20
2018-05-11T06:05:36.370Z,7.37
2018-05-11T06:08:03.917Z,12.60
2018-05-11T06:10:31.495Z,9.50
2018-05-11T06:12:59.648Z,11.93
2018-05-11T06:15:27.200Z,9.00
2018-05-11T06:17:55.513Z,8.97
2018-05-11T06:20:23.083Z,9.70
2018-05-11T06:22:52.418Z,13.13
2018-05-11T06:25:20.061Z,10.60
2018-05-11T06:27:47.727Z,13.07
2018-05-11T06:30:15.245Z,11.47
2018-05-11T06:32:42.809Z,10.33
2018-05-11T06:35:10.411Z,15.03
2018-05-11T06:37:37.965Z,16.93
2018-05-11T06:40:05.483Z,16.63
2018-05-11T06:42:32.999Z,15.90
2018-05-11T06:45:03.231Z,18.90
2018-05-11T06:47:32.887Z,20.50
2018-05-11T06:50:00.571Z,17.73
2018-05-11T06:52:28.179Z,14.53
2018-05-11T06:54:55.739Z,18.07
2018-05-11T06:57:24.132Z,19.93
2018-05-11T06:59:51.711Z,29.40
2018-05-11T07:02:19.266Z,26.57
2018-05-11T07:04:46.915Z,30.10
2018-05-11T07:07:14.501Z,32.30
2018-05-11T07:09:43.792Z,32.03
2018-05-11T07:12:11.337Z,32.67
2018-05-11T07:14:40.018Z,32.80
2018-05-11T07:17:07.571Z,27.63
2018-05-11T07:19:35.191Z,29.70
2018-05-11T07:22:02.838Z,28.93
2018-05-11T07:24:30.496Z,29.03
2018-05-11T07:26:58.052Z,29.43
2018-05-11T07:29:26.345Z,29.80
2018-05-11T07:31:54.126Z,27.90
2018-05-11T07:34:21.666Z,31.27
2018-05-11T07:36:49.966Z,31.83
2018-05-11T07:39:17.484Z,30.33
2018-05-11T07:41:45.175Z,33.00
2018-05-11T07:44:12.853Z,29.07
2018-05-11T07:46:40.519Z,35.37
2018-05-11T07:49:08.127Z,34.83
2018-05-11T07:51:36.465Z,32.33
2018-05-11T07:54:04.032Z,35.00
2018-05-11T07:56:31.564Z,29.47
2018-05-11T07:58:59.149Z,25.13
2018-05-11T08:01:26.693Z,30.23
2018-05-11T08:03:54.273Z,32.50
2018-05-11T08:06:23.454Z,28.63
2018-05-11T08:08:51.019Z,30.50
2018-05-11T08:11:18.561Z,31.07
2018-05-11T08:13:48.717Z,33.13
2018-05-11T08:16:16.251Z,28.17
2018-05-11T08:18:43.817Z,32.03
2018-05-11T08:21:11.357Z,28.73
2018-05-11T08:23:38.921Z,29.63
2018-05-11T08:26:06.507Z,30.57
2018-05-11T08:28:34.073Z,29.97
2018-05-11T08:31:01.615Z,27.27
2018-05-11T08:33:31.804Z,28.17
2018-05-11T08:35:59.450Z,25.13
2018-05-11T08:38:27.040Z,23.77
2018-05-11T08:40:56.317Z,28.33
2018-05-11T08:43:23.860Z,25.43
2018-05-11T08:45:51.382Z,28.00
2018-05-11T08:48:19.024Z,27.80
2018-05-11T08:50:48.481Z,30.57
2018-05-11T08:53:16.075Z,29.50
2018-05-11T08:55:43.864Z,31.97
2018-05-11T08:58:11.531Z,27.73
2018-05-11T09:00:39.779Z,30.90
2018-05-11T09:03:07.437Z,30.40
2018-05-11T09:05:34.907Z,29.40
2018-05-11T09:08:02.585Z,34.37
2018-05-11T09:10:30.133Z,29.00
2018-05-11T09:12:57.697Z,29.40
2018-05-11T09:15:25.219Z,28.50
2018-05-11T09:17:52.782Z,26.80
2018-05-11T09:20:20.389Z,24.60
2018-05-11T09:22:47.907Z,25.77
2018-05-11T09:25:15.562Z,27.73
2018-05-11T09:27:43.911Z,26.33
2018-05-11T09:30:11.509Z,27.80
2018-05-11T09:32:39.763Z,35.40
2018-05-11T09:35:07.405Z,24.10
2018-05-11T09:37:34.943Z,34.20
2018-05-11T09:40:02.545Z,30.23
2018-05-11T09:42:32.387Z,28.23
2018-05-11T09:44:59.907Z,28.10
2018-05-11T09:47:27.507Z,25.87
2018-05-11T09:49:55.159Z,27.37
2018-05-11T09:52:22.721Z,27.90
2018-05-11T09:54:50.347Z,29.13
2018-05-11T09:57:17.975Z,29.60
2018-05-11T09:59:45.517Z,24.20
2018-05-11T10:02:13.091Z,26.50
2018-05-11T10:04:40.637Z,31.50
2018-05-11T10:07:08.227Z,28.67
2018-05-11T10:09:35.725Z,26.10
2018-05-11T10:12:03.284Z,32.50
2018-05-11T10:14:33.209Z,20.20
2018-05-11T10:17:00.757Z,21.93
2018-05-11T10:19:28.334Z,22.33
2018-05-11T10:21:57.617Z,23.07
2018-05-11T10:24:25.219Z,22.13
2018-05-11T10:26:52.753Z,21.17
2018-05-11T10:29:20.316Z,24.60
2018-05-11T10:31:47.875Z,21.10
2018-05-11T10:34:15.494Z,21.00
2018-05-11T10:36:43.012Z,21.13
2018-05-11T10:39:10.648Z,25.30
2018-05-11T10:41:38.206Z,22.27
2018-05-11T10:44:05.754Z,25.37
2018-05-11T10:46:33.352Z,32.90
2018-05-11T10:49:01.009Z,42.30
2018-05-11T10:51:28.549Z,28.60
2018-05-11T10:53:56.102Z,23.80
2018-05-11T10:56:23.645Z,29.83
2018-05-11T10:58:51.185Z,31.93
2018-05-11T11:01:18.739Z,104.30
2018-05-11T11:03:46.291Z,27.80
2018-05-11T11:06:13.863Z,33.43
2018-05-11T11:08:41.433Z,29.40
2018-05-11T11:11:08.956Z,30.80
2018-05-11T11:23:21.585Z,24.20
2018-05-11T11:25:49.213Z,22.30
2018-05-11T11:28:16.757Z,25.10
2018-05-11T11:30:44.345Z,23.77
2018-05-11T11:33:13.858Z,22.50
2018-05-11T11:35:41.433Z,22.67
2018-05-11T11:38:09.029Z,19.70
2018-05-11T11:40:36.679Z,19.87
2018-05-11T11:43:04.215Z,24.07
2018-05-11T11:45:33.027Z,26.60
2018-05-11T11:48:00.701Z,21.03
2018-05-11T11:50:28.250Z,21.53
2018-05-11T11:52:55.935Z,22.33
2018-05-11T11:58:08.051Z,22.33
2018-05-11T12:00:35.525Z,20.47
2018-05-11T12:03:03.015Z,22.70
2018-05-11T12:05:30.486Z,22.67
2018-05-11T12:07:57.959Z,21.60
2018-05-11T12:10:25.488Z,24.20
2018-05-11T12:12:52.967Z,23.80
2018-05-11T12:15:20.481Z,22.07
2018-05-11T12:17:47.996Z,21.67
2018-05-11T12:20:15.496Z,21.33
2018-05-11T12:22:42.987Z,22.83
2018-05-11T12:25:10.501Z,19.37
2018-05-11T12:27:37.984Z,18.60
2018-05-11T12:30:05.488Z,21.70
2018-05-11T12:32:32.997Z,22.27
2018-05-11T12:35:00.503Z,21.67
2018-05-11T12:37:28.001Z,24.53
2018-05-11T12:39:55.489Z,21.33
2018-05-11T12:42:22.988Z,21.07
2018-05-11T12:44:50.515Z,19.73
2018-05-11T12:47:18.054Z,21.87
2018-05-11T12:49:45.596Z,19.23
2018-05-11T12:52:13.057Z,16.60
2018-05-11T12:54:40.568Z,16.83
2018-05-11T12:57:08.029Z,18.90
2018-05-11T12:59:35.513Z,18.00
2018-05-11T13:02:03.010Z,17.67
2018-05-11T13:04:30.501Z,19.93
2018-05-11T13:06:58.004Z,17.20
2018-05-11T13:09:25.513Z,19.53
2018-05-11T13:11:53.039Z,16.87
2018-05-11T13:14:20.521Z,16.00
2018-05-11T13:16:48.014Z,18.53
2018-05-11T13:19:15.536Z,18.20
2018-05-11T13:21:43.016Z,15.80
2018-05-11T13:24:10.584Z,15.60
2018-05-11T13:26:38.102Z,15.97
2018-05-11T13:29:05.578Z,18.63
2018-05-11T13:31:33.071Z,15.93
2018-05-11T13:34:00.552Z,15.60
2018-05-11T13:36:28.066Z,15.00
2018-05-11T13:38:55.564Z,17.83
2018-05-11T13:41:23.036Z,16.50
2018-05-11T13:43:50.722Z,15.73
2018-05-11T13:46:18.198Z,13.03
2018-05-11T13:48:45.699Z,16.93
2018-05-11T13:51:13.173Z,16.80
2018-05-11T13:53:40.711Z,15.03
2018-05-11T13:56:08.343Z,15.30
2018-05-11T13:58:35.783Z,16.33
2018-05-11T14:01:03.254Z,16.10
2018-05-11T14:03:30.838Z,12.53
2018-05-11T14:05:58.278Z,14.57
2018-05-11T14:08:25.760Z,14.97
2018-05-11T14:10:53.250Z,12.53
2018-05-11T14:13:20.744Z,11.27
2018-05-11T14:15:48.245Z,11.00
2018-05-11T14:18:15.716Z,14.15
2018-05-11T14:20:43.210Z,14.53
2018-05-11T14:23:10.674Z,11.97
2018-05-11T14:25:38.170Z,12.03
2018-05-11T14:28:05.899Z,11.77
2018-05-11T14:30:33.646Z,12.20
2018-05-11T14:33:01.130Z,12.10
2018-05-11T14:35:28.773Z,13.23
2018-05-11T14:37:56.274Z,12.40
2018-05-11T14:40:23.785Z,12.60
2018-05-11T14:42:51.506Z,10.27
2018-05-11T14:45:18.976Z,9.60
2018-05-11T14:47:46.538Z,8.40
2018-05-11T14:50:14.037Z,13.80
2018-05-11T14:52:41.531Z,9.57
2018-05-11T14:55:09.004Z,10.57
2018-05-11T14:57:36.500Z,10.77
2018-05-11T15:00:03.993Z,11.00
2018-05-11T15:02:31.721Z,13.00
2018-05-11T15:04:59.220Z,10.83
2018-05-11T15:07:26.695Z,12.17
2018-05-11T15:09:54.208Z,10.23
2018-05-11T15:12:21.699Z,9.37
2018-05-11T15:14:49.207Z,9.20
2018-05-11T15:17:17.003Z,8.37
2018-05-11T15:19:44.512Z,10.80
2018-05-11T15:22:11.987Z,7.90
2018-05-11T15:24:39.450Z,8.70
2018-05-11T15:27:07.245Z,11.33
2018-05-11T15:29:34.714Z,11.80
2018-05-11T15:32:02.226Z,8.83
2018-05-11T15:34:29.955Z,9.80
2018-05-11T15:36:57.425Z,7.77
2018-05-11T15:39:24.929Z,6.90
2018-05-11T15:41:52.382Z,6.63
2018-05-11T15:44:19.913Z,6.43
2018-05-11T15:46:47.463Z,6.13
2018-05-11T15:49:14.936Z,10.37
2018-05-11T15:51:42.417Z,9.40
2018-05-11T15:54:09.908Z,6.87
2018-05-11T15:56:37.390Z,6.27
2018-05-11T15:59:04.951Z,7.20
2018-05-11T16:01:32.353Z,6.10
2018-05-11T16:03:59.866Z,7.50
2018-05-11T16:06:27.349Z,6.63
2018-05-11T16:08:54.816Z,7.13
2018-05-11T16:11:22.317Z,6.97
2018-05-11T16:13:49.780Z,5.57
2018-05-11T16:16:17.249Z,6.20
2018-05-11T16:18:44.737Z,5.60
2018-05-11T16:21:12.209Z,5.93
2018-05-11T16:23:39.704Z,5.50
2018-05-11T16:26:07.190Z,5.73
2018-05-11T16:28:34.674Z,7.17
2018-05-11T16:31:02.135Z,6.97
2018-05-11T16:33:29.621Z,6.30
2018-05-11T16:35:57.144Z,8.27
2018-05-11T16:38:24.605Z,6.77
2018-05-11T16:40:52.104Z,11.90
2018-05-11T16:43:19.604Z,9.80
2018-05-11T16:45:47.078Z,7.57
2018-05-11T16:48:14.550Z,8.43
2018-05-11T16:50:42.062Z,8.43
2018-05-11T16:53:09.563Z,7.57
2018-05-11T16:55:37.041Z,10.73
2018-05-11T16:58:04.535Z,8.50
2018-05-11T17:00:32.014Z,7.73
2018-05-11T17:02:59.536Z,7.10
2018-05-11T17:05:26.986Z,8.83
2018-05-11T17:07:54.479Z,6.10
2018-05-11T17:10:21.952Z,6.57
2018-05-11T17:12:49.414Z,6.27
2018-05-11T17:15:16.906Z,6.60
2018-05-11T17:17:44.397Z,6.90
2018-05-11T17:20:11.882Z,7.00
2018-05-11T17:22:39.449Z,7.87
2018-05-11T17:25:06.900Z,7.60
2018-05-11T17:27:34.376Z,7.63
2018-05-11T17:30:01.916Z,10.40
2018-05-11T17:32:29.361Z,7.47
2018-05-11T17:34:56.877Z,40.80
2018-05-11T17:37:24.470Z,14.40
2018-05-11T17:39:51.948Z,10.33
2018-05-11T17:42:19.449Z,21.23
2018-05-11T17:44:46.923Z,18.47
2018-05-11T17:47:14.417Z,14.30
2018-05-11T17:49:41.897Z,8.00
2018-05-11T17:52:09.393Z,7.67
2018-05-11T17:54:36.864Z,8.33
2018-05-11T17:57:04.465Z,8.63
2018-05-11T17:59:32.191Z,10.93
2018-05-11T18:01:59.655Z,7.63
2018-05-11T18:04:27.159Z,9.13
2018-05-11T18:06:54.621Z,12.03
2018-05-11T18:09:22.098Z,8.43
2018-05-11T18:11:49.569Z,8.60
2018-05-11T18:14:17.058Z,7.73
2018-05-11T18:16:44.518Z,8.13
2018-05-11T18:19:12.025Z,12.73
2018-05-11T18:21:40.941Z,10.23
2018-05-11T18:24:08.402Z,6.93
2018-05-11T18:26:36.148Z,5.97
2018-05-11T18:29:03.843Z,6.77
2018-05-11T18:31:31.355Z,7.80
2018-05-11T18:33:58.985Z,7.03
2018-05-11T18:36:26.499Z,9.70
2018-05-11T18:38:53.984Z,13.17
2018-05-11T18:41:21.872Z,8.50
2018-05-11T18:43:49.354Z,8.10
2018-05-11T18:46:17.106Z,6.97
2018-05-11T18:48:44.754Z,10.17
2018-05-11T18:51:12.229Z,8.43
2018-05-11T18:53:40.178Z,9.40
2018-05-11T18:56:07.552Z,10.67
2018-05-11T18:58:35.046Z,7.97
2018-05-11T19:01:02.575Z,6.63
2018-05-11T19:03:30.083Z,13.80
2018-05-11T19:05:57.568Z,9.40
2018-05-11T19:08:25.065Z,12.40
2018-05-11T19:10:52.781Z,8.47
2018-05-11T19:13:20.505Z,9.10
2018-05-11T19:18:22.006Z,8.47
2018-05-11T19:20:49.520Z,9.77
2018-05-11T19:23:17.021Z,9.43
2018-05-11T19:25:44.523Z,11.37
2018-05-11T19:28:12.018Z,12.03
2018-05-11T19:30:39.489Z,12.60
2018-05-11T19:33:07.008Z,9.43
2018-05-11T19:35:34.499Z,13.40
2018-05-11T19:38:02.012Z,9.13
2018-05-11T19:40:29.493Z,8.47
2018-05-11T19:42:57.017Z,13.03
2018-05-11T19:45:24.545Z,11.30
2018-05-11T19:47:52.081Z,10.50
2018-05-11T19:50:19.643Z,13.07
2018-05-11T19:52:47.086Z,11.53
2018-05-11T19:55:14.601Z,9.67
2018-05-11T19:57:42.109Z,9.73
2018-05-11T20:00:09.669Z,12.67
2018-05-11T20:02:37.150Z,8.60
2018-05-11T20:05:04.688Z,9.17
2018-05-11T20:07:32.175Z,8.17
2018-05-11T20:09:59.772Z,8.87
2018-05-11T20:12:27.210Z,7.90
2018-05-11T20:14:54.692Z,10.83
2018-05-11T20:17:22.197Z,7.93
2018-05-11T20:19:49.675Z,9.10
2018-05-11T20:22:17.174Z,9.50
2018-05-11T20:24:44.671Z,10.80
2018-05-11T20:27:12.172Z,8.53
2018-05-11T20:29:39.680Z,9.40
2018-05-11T20:32:07.189Z,10.53
2018-05-11T20:34:34.673Z,12.47
2018-05-11T20:37:02.155Z,9.57
2018-05-11T20:39:29.641Z,11.03
2018-05-11T20:41:57.118Z,9.53
2018-05-11T20:44:24.687Z,15.33
2018-05-11T20:46:52.167Z,10.67
2018-05-11T20:49:19.682Z,12.03
2018-05-11T20:51:47.423Z,11.47
2018-05-11T20:54:15.084Z,17.97
2018-05-11T20:56:42.758Z,11.40
2018-05-11T20:59:10.563Z,13.33
2018-05-11T21:01:38.289Z,15.07
2018-05-11T21:04:05.759Z,13.07
2018-05-11T21:06:33.274Z,12.30
2018-05-11T21:09:01.050Z,11.73
2018-05-11T21:11:28.665Z,11.50
2018-05-11T21:13:56.614Z,12.70
2018-05-11T21:16:24.092Z,12.70
2018-05-11T21:18:51.601Z,13.47
2018-05-11T21:21:19.099Z,13.00
2018-05-11T21:23:46.969Z,12.90
2018-05-11T21:26:14.446Z,12.57
2018-05-11T21:28:42.021Z,16.87
2018-05-11T21:31:09.547Z,14.40
2018-05-11T21:33:37.107Z,13.90
2018-05-11T21:36:04.646Z,12.70
2018-05-11T21:38:32.239Z,12.07
2018-05-11T21:41:00.122Z,15.27
2018-05-11T21:43:27.793Z,11.60
2018-05-11T21:45:55.284Z,11.73
2018-05-11T21:48:23.054Z,11.87
2018-05-11T21:50:50.873Z,11.90
2018-05-11T21:53:18.611Z,10.53
2018-05-11T21:55:46.091Z,10.80
2018-05-11T21:58:13.604Z,15.70
2018-05-11T22:00:41.304Z,15.63
2018-05-11T22:03:08.793Z,12.40
2018-05-11T22:05:36.257Z,11.60
2018-05-11T22:08:03.741Z,12.50
2018-05-11T22:10:31.250Z,12.67
2018-05-11T22:12:58.976Z,12.93
2018-05-11T22:15:26.493Z,11.97
2018-05-11T22:17:54.216Z,13.00
2018-05-11T22:20:21.773Z,12.40
2018-05-11T22:22:49.275Z,12.10
2018-05-11T22:25:17.054Z,12.97
2018-05-11T22:27:44.630Z,12.80
2018-05-11T22:30:12.126Z,15.37
2018-05-11T22:32:39.591Z,12.97
2018-05-11T22:35:08.367Z,12.60
2018-05-11T22:37:35.906Z,15.50
2018-05-11T22:40:03.412Z,13.83
2018-05-11T22:42:30.887Z,13.50
2018-05-11T22:44:58.374Z,14.27
2018-05-11T22:47:25.881Z,11.60
2018-05-11T22:49:53.383Z,16.77
2018-05-11T22:52:20.871Z,15.77
2018-05-11T22:54:48.358Z,15.60
2018-05-11T22:57:15.845Z,15.07
2018-05-11T22:59:43.338Z,13.50
2018-05-11T23:02:10.832Z,13.20
2018-05-11T23:04:38.396Z,14.63
2018-05-11T23:07:05.959Z,16.17
2018-05-11T23:09:33.424Z,16.67
2018-05-11T23:12:01.128Z,17.07
2018-05-11T23:14:28.625Z,15.73
2018-05-11T23:16:56.117Z,13.60
2018-05-11T23:19:23.653Z,13.50
2018-05-11T23:21:51.136Z,14.77
2018-05-11T23:24:18.624Z,17.93
2018-05-11T23:26:46.110Z,16.53
2018-05-11T23:29:13.574Z,16.50
2018-05-11T23:31:41.129Z,15.63
2018-05-11T23:34:08.608Z,15.73
2018-05-11T23:36:36.119Z,15.50
2018-05-11T23:39:03.605Z,18.70
2018-05-11T23:41:31.083Z,15.50
2018-05-11T23:43:58.544Z,15.87
2018-05-11T23:46:26.024Z,14.97
2018-05-11T23:48:53.502Z,19.43
2018-05-11T23:51:20.989Z,19.13
2018-05-11T23:53:48.449Z,15.83
2018-05-11T23:56:15.922Z,17.40
2018-05-11T23:58:43.417Z,15.50
